MWF weather

Maewo-Naone Airport
Maewo Island, Penama, Vanuatu

Public forecast

Using degrees Celsius for public forecast. Weather courtesy of forecast.io.

METAR (pilot weather report)

Report is more than 6 hours old.

Closest report is Longana Airport, 19.6 nm (36.3 km) SSW. Retrieved 2019/06/01 21:00 UTC (23 days ago):

NVSG 012100Z NI

TAF (pilot weather forecast)

Forecast is more than 12 hours old.

Closest forecast is Longana Airport, 19.6 nm (36.3 km) SSW. Retrieved 2019/06/24 00:21 UTC (1 day ago):

TAF NVSG 242220Z 2500/2524 13010KT 9999 SCT020 PROB40 INTER 2500/2506 9000 -SHRA BKN018